FNHU/NOV METAR and TAF weather

Enter ICAO airport designator
Station Type Date Time Source
FNHU METAR 2019/08/21 15:00 UTC NOAA

FNHU 211500Z 11010KT 9000 NSC 26/M02 Q1023


Station Type Date Time Source
FNHU Decoded METAR 2019/08/21 15:00 UTC NOAA

Station name not available
Aug 21, 2019 - 11:00 AM EDT / 2019.08.21 1500 UTC
Wind: from the ESE (110 degrees) at 12 MPH (10 KT):0
Visibility: 5 mile(s):0
Temperature: 78 F (26 C)
Dew Point: 28 F (-2 C)
Relative Humidity: 15%
Pressure (altimeter): 30.21 in. Hg (1023 hPa)
ob: FNHU 211500Z 11010KT 9000 NSC 26/M02 Q1023
cycle: 15

Station Type Date Time Source
FNHU TAF 2019/08/21 12:50 UTC NOAA

TAF FNHU 211050Z 2112/2124 10010KT CAVOK
BECMG 2122/2124 VRB03KT 8000 NSC

Example: see airport list